Time;durP1;ratioP1;P1;durP2;ratioP2;P2;SDS_P1;SDS_P2;PMS_P1;PMS_P2;Temp;Humidity;BMP_temperature;BMP_pressure;BME280_temperature;BME280_humidity;BME280_pressure;Samples;Min_cycle;Max_cycle;Signal;HPM_P1;HPM_P2
2023/08/20 00:00:45;;;;;;;13.50;12.30;;;;;;;20.44;100.00;96989.95;109948;1278;138972;-92
2023/08/20 00:03:31;;;;;;;13.30;12.10;;;;;;;20.44;100.00;96987.21;110058;1281;22331;-93
2023/08/20 00:05:58;;;;;;;14.40;13.10;;;;;;;20.43;100.00;96986.57;109892;1273;138837;-92
2023/08/20 00:08:26;;;;;;;14.60;12.80;;;;;;;20.43;100.00;96982.39;110076;1281;22274;-92
2023/08/20 00:10:54;;;;;;;14.20;13.00;;;;;;;20.42;100.00;96983.73;110027;1277;22363;-92
2023/08/20 00:13:21;;;;;;;14.40;13.10;;;;;;;20.40;100.00;96977.58;109952;1278;139415;-92
2023/08/20 00:15:47;;;;;;;14.50;13.20;;;;;;;20.39;100.00;96975.96;109997;1277;22123;-93
2023/08/20 00:18:14;;;;;;;12.50;11.50;;;;;;;20.38;100.00;96976.52;109955;1275;138850;-92
2023/08/20 00:20:41;;;;;;;13.10;11.90;;;;;;;20.38;100.00;96976.40;109984;1276;22332;-92
2023/08/20 00:23:07;;;;;;;14.80;13.40;;;;;;;20.37;100.00;96976.80;110057;1281;22357;-91
2023/08/20 00:25:34;;;;;;;14.00;12.70;;;;;;;20.35;100.00;96978.67;109867;1279;139077;-92
2023/08/20 00:28:00;;;;;;;14.40;12.90;;;;;;;20.34;100.00;96973.36;110036;1280;23009;-92
2023/08/20 00:30:27;;;;;;;13.30;12.10;;;;;;;20.33;100.00;96976.38;109914;1276;138749;-92
2023/08/20 00:32:54;;;;;;;14.40;13.10;;;;;;;20.31;100.00;96973.59;109995;1277;23031;-91
2023/08/20 00:35:20;;;;;;;14.00;12.60;;;;;;;20.30;100.00;96972.30;110072;1281;22191;-92
2023/08/20 00:37:46;;;;;;;13.50;12.40;;;;;;;20.29;100.00;96973.12;109979;1274;139206;-92
2023/08/20 00:40:12;;;;;;;13.20;11.90;;;;;;;20.28;100.00;96975.73;110058;1276;22238;-92
2023/08/20 00:42:40;;;;;;;13.40;12.20;;;;;;;20.28;100.00;96976.95;109949;1276;139244;-92
2023/08/20 00:45:07;;;;;;;14.10;12.90;;;;;;;20.28;100.00;96973.14;109996;1277;22360;-92
2023/08/20 00:47:33;;;;;;;13.20;12.00;;;;;;;20.26;100.00;96976.66;110088;1281;22348;-92
2023/08/20 00:50:00;;;;;;;13.60;12.30;;;;;;;20.26;100.00;96974.59;109880;1277;138370;-92
2023/08/20 00:52:28;;;;;;;13.80;12.60;;;;;;;20.25;100.00;96972.66;110099;1281;22471;-92
2023/08/20 00:54:54;;;;;;;13.90;12.60;;;;;;;20.24;100.00;96971.84;109897;1273;138460;-92
2023/08/20 00:57:20;;;;;;;13.20;12.00;;;;;;;20.23;100.00;96968.92;109959;1278;22240;-91
2023/08/20 00:59:49;;;;;;;13.80;12.50;;;;;;;20.22;100.00;96970.77;109998;1278;23204;-91
2023/08/20 01:02:16;;;;;;;14.70;13.40;;;;;;;20.22;100.00;96970.65;109839;1282;138861;-92
2023/08/20 01:04:42;;;;;;;13.40;12.20;;;;;;;20.21;100.00;96970.95;110036;1274;22221;-92
2023/08/20 01:07:14;;;;;;;13.80;12.60;;;;;;;20.20;100.00;96971.55;109890;1283;138872;-91
2023/08/20 01:09:40;;;;;;;;;;;;;;;20.20;100.00;96967.33;109975;1283;22595;-91
2023/08/20 01:12:06;;;;;;;15.10;12.80;;;;;;;20.18;100.00;96969.38;109924;1274;125124;-92
2023/08/20 01:14:37;;;;;;;13.20;11.80;;;;;;;20.17;100.00;96971.24;110004;1277;22256;-92
2023/08/20 01:17:03;;;;;;;13.80;12.50;;;;;;;20.16;100.00;96974.13;109968;1276;22205;-92
2023/08/20 01:19:30;;;;;;;13.70;12.30;;;;;;;20.16;100.00;96973.38;109855;1280;139084;-92
2023/08/20 01:22:06;;;;;;;13.40;12.00;;;;;;;20.14;100.00;96973.72;110072;1275;22187;-91
2023/08/20 01:25:00;;;;;;;12.90;11.70;;;;;;;20.14;100.00;96973.77;109955;1282;139096;-91
2023/08/20 01:27:52;;;;;;;14.30;12.90;;;;;;;20.13;100.00;96971.38;110028;1277;22227;-92
2023/08/20 01:30:19;;;;;;;;;;;;;;;20.12;100.00;96970.52;109834;1282;139552;-92
2023/08/20 01:32:45;;;;;;;13.60;12.50;;;;;;;20.12;100.00;96970.80;109965;1280;23005;-91
2023/08/20 01:35:13;;;;;;;14.10;12.90;;;;;;;20.12;100.00;96975.35;109957;1278;23152;-91
2023/08/20 01:37:40;;;;;;;13.30;12.20;;;;;;;20.11;100.00;96976.23;109884;1275;138716;-91
2023/08/20 01:40:10;;;;;;;14.30;13.00;;;;;;;20.10;100.00;96978.02;109980;1277;22215;-92
2023/08/20 01:42:37;;;;;;;14.90;13.50;;;;;;;20.10;100.00;96978.95;109848;1282;138766;-92
2023/08/20 01:45:05;;;;;;;14.70;13.50;;;;;;;20.10;100.00;96979.16;109949;1283;22299;-91
2023/08/20 01:47:49;;;;;;;15.10;13.70;;;;;;;20.11;100.00;96978.40;109994;1274;22279;-91
2023/08/20 01:50:15;;;;;;;14.50;13.00;;;;;;;20.11;100.00;96974.55;109854;1277;138841;-92
2023/08/20 01:52:42;;;;;;;14.60;13.20;;;;;;;20.11;100.00;96974.06;109985;1281;22338;-91
2023/08/20 01:55:08;;;;;;;14.30;12.90;;;;;;;20.10;100.00;96973.10;109890;1282;138736;-93
2023/08/20 01:57:35;;;;;;;13.80;12.60;;;;;;;20.09;100.00;96972.02;109976;1281;22405;-92
2023/08/20 02:00:02;;;;;;;14.40;13.10;;;;;;;20.09;100.00;96976.61;109873;1267;139014;-92
2023/08/20 02:02:28;;;;;;;14.00;12.70;;;;;;;20.09;100.00;96974.25;109947;1282;23075;-93
2023/08/20 02:04:54;;;;;;;13.80;12.50;;;;;;;20.10;100.00;96972.62;110062;1277;23017;-92
2023/08/20 02:07:21;;;;;;;14.30;13.00;;;;;;;20.11;100.00;96972.73;109880;1277;137784;-92
2023/08/20 02:09:48;;;;;;;14.40;13.10;;;;;;;20.11;100.00;96975.81;110043;1275;22953;-92
2023/08/20 02:12:14;;;;;;;13.80;12.40;;;;;;;20.11;100.00;96974.55;109841;1276;139028;-90
2023/08/20 02:14:58;;;;;;;14.70;13.50;;;;;;;20.12;100.00;96976.00;109998;1275;22247;-92
2023/08/20 02:17:24;;;;;;;15.60;14.10;;;;;;;20.12;100.00;96974.98;109965;1282;22229;-92
2023/08/20 02:19:51;;;;;;;15.10;13.60;;;;;;;20.11;100.00;96974.18;109826;1282;139255;-92
2023/08/20 02:22:20;;;;;;;15.10;13.70;;;;;;;20.11;100.00;96974.39;109975;1282;22290;-92
2023/08/20 02:24:48;;;;;;;15.40;14.00;;;;;;;20.10;100.00;96975.21;109872;1275;138533;-91
2023/08/20 02:27:15;;;;;;;14.50;13.20;;;;;;;20.11;100.00;96977.23;109922;1281;22890;-92
2023/08/20 02:29:41;;;;;;;15.00;13.60;;;;;;;20.11;100.00;96976.13;109975;1279;22340;-91
2023/08/20 02:32:08;;;;;;;14.60;13.30;;;;;;;20.11;100.00;96975.44;109858;1278;138785;-92
2023/08/20 02:34:36;;;;;;;14.00;12.70;;;;;;;20.11;100.00;96972.89;109968;1282;22328;-92
2023/08/20 02:37:06;;;;;;;14.90;13.50;;;;;;;20.11;100.00;96972.16;109836;1280;139483;-92
2023/08/20 02:39:33;;;;;;;14.20;12.80;;;;;;;20.11;100.00;96971.59;109944;1282;23199;-91
2023/08/20 02:41:59;;;;;;;14.90;13.60;;;;;;;20.11;100.00;96972.85;109882;1280;138932;-92
2023/08/20 02:44:26;;;;;;;14.00;12.50;;;;;;;20.11;100.00;96968.84;109994;1274;22438;-92
2023/08/20 02:46:52;;;;;;;14.90;13.30;;;;;;;20.10;100.00;96967.52;110016;1273;22220;-92
2023/08/20 02:49:20;;;;;;;13.70;12.40;;;;;;;20.09;100.00;96965.33;109883;1281;139203;-93
2023/08/20 02:51:46;;;;;;;13.70;12.40;;;;;;;20.09;100.00;96963.63;109991;1281;22480;-92
2023/08/20 02:54:13;;;;;;;14.80;13.40;;;;;;;20.08;100.00;96963.72;109983;1281;138505;-92
2023/08/20 02:56:40;;;;;;;14.10;12.80;;;;;;;20.08;100.00;96967.63;109822;1281;216292;-92
2023/08/20 02:59:06;;;;;;;14.80;13.30;;;;;;;20.07;100.00;96967.88;110045;1281;22245;-92
2023/08/20 03:01:34;;;;;;;13.90;12.50;;;;;;;20.07;100.00;96969.18;109947;1281;139329;-92
2023/08/20 03:04:00;;;;;;;14.40;13.10;;;;;;;20.06;100.00;96972.07;110062;1275;22344;-92
2023/08/20 03:06:26;;;;;;;13.50;12.20;;;;;;;20.06;100.00;96970.54;109991;1275;138887;-92
2023/08/20 03:08:53;;;;;;;13.10;11.90;;;;;;;20.06;100.00;96972.52;110006;1281;22356;-91
2023/08/20 03:11:18;;;;;;;13.50;12.30;;;;;;;20.05;100.00;96978.21;109993;1273;22459;-93
2023/08/20 03:13:45;;;;;;;13.10;11.90;;;;;;;20.05;100.00;96977.37;109998;1273;138618;-92
2023/08/20 03:16:11;;;;;;;12.40;11.30;;;;;;;20.05;100.00;96977.73;110063;1274;23085;-90
2023/08/20 03:18:37;;;;;;;13.00;11.80;;;;;;;20.06;100.00;96981.09;109925;1281;138936;-92
2023/08/20 03:21:05;;;;;;;12.40;11.40;;;;;;;20.06;100.00;96980.98;110068;1281;22313;-92
2023/08/20 03:23:31;;;;;;;13.40;12.10;;;;;;;20.05;100.00;96978.39;109959;1281;22343;-91
2023/08/20 03:25:59;;;;;;;13.00;11.80;;;;;;;20.05;100.00;96977.33;109983;1273;139607;-92
2023/08/20 03:28:25;;;;;;;13.30;12.20;;;;;;;20.07;100.00;96982.95;110060;1274;23136;-92
2023/08/20 03:30:51;;;;;;;13.50;12.20;;;;;;;20.07;100.00;96986.34;109837;1281;139107;-92
2023/08/20 03:33:18;;;;;;;13.40;12.20;;;;;;;20.08;100.00;96988.16;109968;1275;22255;-92
2023/08/20 03:35:45;;;;;;;13.40;12.10;;;;;;;20.08;100.00;96988.64;109949;1279;22306;-91
2023/08/20 03:38:11;;;;;;;13.60;12.30;;;;;;;20.09;100.00;96992.97;109920;1277;138277;-92
2023/08/20 03:40:38;;;;;;;12.40;11.30;;;;;;;20.09;100.00;96993.08;109967;1283;22255;-92
2023/08/20 03:43:04;;;;;;;13.40;12.20;;;;;;;20.11;100.00;96993.64;109900;1282;139197;-92
2023/08/20 03:45:31;;;;;;;12.70;11.50;;;;;;;20.11;100.00;96994.07;109977;1272;22875;-92
2023/08/20 03:47:57;;;;;;;11.80;10.70;;;;;;;20.12;100.00;96995.98;109860;1280;139000;-91
2023/08/20 03:50:23;;;;;;;12.90;11.80;;;;;;;20.12;100.00;97000.67;109963;1279;22185;-91
2023/08/20 03:52:49;;;;;;;11.90;10.90;;;;;;;20.11;100.00;96998.17;109965;1280;22342;-92
2023/08/20 03:55:17;;;;;;;11.90;10.90;;;;;;;20.11;100.00;97005.30;109867;1279;138813;-92
2023/08/20 03:57:44;;;;;;;12.20;11.10;;;;;;;20.12;100.00;97005.58;109975;1281;22330;-92
2023/08/20 04:00:12;;;;;;;13.40;12.10;;;;;;;20.12;100.00;97005.75;109860;1282;138401;-92
2023/08/20 04:02:40;;;;;;;12.70;11.50;;;;;;;20.12;100.00;97003.80;109972;1280;23057;-92
2023/08/20 04:05:07;;;;;;;12.40;11.10;;;;;;;20.12;100.00;97006.22;109999;1278;22207;-90
2023/08/20 04:07:33;;;;;;;12.10;11.00;;;;;;;20.12;100.00;97011.14;109866;1282;139126;-92
2023/08/20 04:09:59;;;;;;;13.10;12.00;;;;;;;20.13;100.00;97011.37;109969;1282;22212;-92
2023/08/20 04:12:26;;;;;;;12.30;11.20;;;;;;;20.14;100.00;97007.95;109899;1279;138858;-93
2023/08/20 04:14:54;;;;;;;12.40;11.20;;;;;;;20.14;100.00;97007.02;109958;1282;22363;-92
2023/08/20 04:17:22;;;;;;;12.60;11.50;;;;;;;20.15;100.00;97002.73;109974;1282;22606;-92
2023/08/20 04:19:50;;;;;;;12.70;11.60;;;;;;;20.15;100.00;97003.75;109855;1280;138868;-92
2023/08/20 04:22:16;;;;;;;12.80;11.60;;;;;;;20.16;100.00;97002.55;109969;1283;22323;-92
2023/08/20 04:24:44;;;;;;;14.00;12.50;;;;;;;20.15;100.00;96999.77;109882;1280;137649;-92
2023/08/20 04:27:11;;;;;;;13.60;12.40;;;;;;;20.16;100.00;96997.61;110032;1279;22222;-92
2023/08/20 04:29:38;;;;;;;14.90;13.60;;;;;;;20.17;100.00;96995.73;110001;1282;22462;-92
2023/08/20 04:32:05;;;;;;;13.30;12.10;;;;;;;20.17;100.00;96994.58;109944;1278;139017;-92
2023/08/20 04:34:32;;;;;;;13.50;12.30;;;;;;;20.17;100.00;96995.07;110038;1277;23182;-92
2023/08/20 04:36:59;;;;;;;13.80;12.60;;;;;;;20.18;100.00;96991.50;109951;1279;138928;-92
2023/08/20 04:39:25;;;;;;;14.20;12.80;;;;;;;20.20;100.00;96993.02;109944;1282;22349;-92
2023/08/20 04:41:52;;;;;;;13.10;12.00;;;;;;;20.20;100.00;96996.30;109984;1281;22184;-92
2023/08/20 04:44:30;;;;;;;13.60;12.50;;;;;;;20.21;100.00;96995.42;110076;1273;22150;-92
2023/08/20 04:46:56;;;;;;;14.50;13.30;;;;;;;20.23;100.00;97001.53;109992;1281;22994;-92
2023/08/20 04:49:28;;;;;;;14.70;13.50;;;;;;;20.23;100.00;97001.40;109899;1280;138781;-92
2023/08/20 04:51:54;;;;;;;14.10;12.90;;;;;;;20.25;100.00;97003.36;109975;1281;22591;-92
2023/08/20 04:54:20;;;;;;;14.60;13.30;;;;;;;20.25;100.00;97000.27;109876;1275;138899;-91
2023/08/20 04:56:47;;;;;;;14.70;13.30;;;;;;;20.25;100.00;96997.75;109967;1282;22156;-92
2023/08/20 04:59:14;;;;;;;13.50;12.40;;;;;;;20.26;100.00;97002.03;110056;1276;22382;-92
2023/08/20 05:01:40;;;;;;;15.80;13.30;;;;;;;20.28;100.00;97000.59;109929;1282;138887;-92
2023/08/20 05:04:15;;;;;;;14.70;13.20;;;;;;;20.29;100.00;97004.33;109960;1275;22189;-91
2023/08/20 05:06:41;;;;;;;15.10;13.70;;;;;;;20.31;100.00;97007.38;109850;1281;138778;-91
2023/08/20 05:09:08;;;;;;;14.90;13.60;;;;;;;20.33;100.00;97005.08;109980;1275;23099;-93
2023/08/20 05:11:34;;;;;;;15.20;13.90;;;;;;;20.34;100.00;97009.59;109992;1282;22281;-93
2023/08/20 05:14:05;;;;;;;14.60;13.40;;;;;;;20.36;100.00;97009.31;109947;1282;138942;-91
2023/08/20 05:16:31;;;;;;;14.70;13.40;;;;;;;20.38;100.00;97007.17;110068;1282;22192;-91
2023/08/20 05:18:57;;;;;;;15.60;14.20;;;;;;;20.38;100.00;97011.46;109847;1282;139404;-92
2023/08/20 05:21:23;;;;;;;15.00;13.60;;;;;;;20.39;100.00;97012.55;109962;1283;22183;-92
2023/08/20 05:23:50;;;;;;;16.50;14.90;;;;;;;20.41;100.00;97012.58;109953;1279;22128;-92
2023/08/20 05:26:16;;;;;;;15.60;14.20;;;;;;;20.42;100.00;97015.00;109875;1281;138135;-92
2023/08/20 05:28:42;;;;;;;14.40;13.10;;;;;;;20.44;100.00;97015.98;109967;1283;22864;-93
2023/08/20 05:31:11;;;;;;;14.40;13.00;;;;;;;20.45;100.00;97017.91;109867;1283;138623;-92
2023/08/20 05:33:38;;;;;;;15.00;13.70;;;;;;;20.48;100.00;97019.04;109928;1281;22822;-92
2023/08/20 05:36:06;;;;;;;14.80;13.50;;;;;;;20.50;100.00;97021.25;109841;1282;139185;-92
2023/08/20 05:38:42;;;;;;;14.90;13.60;;;;;;;20.52;100.00;97021.95;110033;1282;22158;-92
2023/08/20 05:41:09;;;;;;;14.60;13.40;;;;;;;20.55;100.00;97026.66;109968;1278;22197;-93
2023/08/20 05:43:41;;;;;;;14.70;13.40;;;;;;;20.57;100.00;97027.06;109851;1283;138956;-92
2023/08/20 05:46:07;;;;;;;14.90;13.60;;;;;;;20.58;100.00;97027.98;110014;1278;22315;-92
2023/08/20 05:48:34;;;;;;;15.20;13.90;;;;;;;20.59;100.00;97031.65;109872;1282;139134;-93
2023/08/20 05:51:00;;;;;;;13.50;12.40;;;;;;;20.60;100.00;97034.52;109959;1281;22211;-92
2023/08/20 05:53:28;;;;;;;14.70;13.20;;;;;;;20.61;100.00;97031.29;109961;1282;22250;-92
2023/08/20 05:55:55;;;;;;;14.10;12.90;;;;;;;20.63;100.00;97036.24;109899;1277;138381;-92
2023/08/20 05:58:21;;;;;;;15.10;13.60;;;;;;;20.65;100.00;97036.81;110059;1283;22400;-92
2023/08/20 06:00:47;;;;;;;14.00;12.80;;;;;;;20.67;100.00;97039.77;109953;1275;139630;-92
2023/08/20 06:03:15;;;;;;;14.50;13.30;;;;;;;20.69;100.00;97040.02;110006;1276;22144;-92
2023/08/20 06:05:42;;;;;;;14.00;12.90;;;;;;;20.70;100.00;97040.26;109992;1279;22823;-92
2023/08/20 06:08:12;;;;;;;14.30;13.00;;;;;;;20.72;100.00;97042.04;109891;1282;138781;-92
2023/08/20 06:10:39;;;;;;;14.00;12.70;;;;;;;20.74;100.00;97042.41;109976;1277;22218;-92
2023/08/20 06:13:08;;;;;;;14.60;13.40;;;;;;;20.77;100.00;97041.14;109841;1279;139398;-92
2023/08/20 06:15:34;;;;;;;13.70;12.50;;;;;;;20.80;100.00;97046.96;109987;1282;22218;-91
2023/08/20 06:18:00;;;;;;;14.30;13.00;;;;;;;20.84;100.00;97053.63;109896;1282;138490;-92
2023/08/20 06:20:27;;;;;;;14.20;12.90;;;;;;;20.86;100.00;97053.77;110067;1279;23005;-93
2023/08/20 06:22:53;;;;;;;13.50;12.30;;;;;;;20.89;100.00;97053.94;109935;1276;22187;-91
2023/08/20 06:25:21;;;;;;;13.10;11.80;;;;;;;20.91;100.00;97055.52;109935;1276;138859;-92
2023/08/20 06:28:09;;;;;;;13.00;11.80;;;;;;;20.94;100.00;97056.31;110011;1282;22267;-91
2023/08/20 06:30:36;;;;;;;13.10;11.90;;;;;;;20.96;100.00;97060.73;109880;1281;139055;-92
2023/08/20 06:33:02;;;;;;;13.80;12.50;;;;;;;20.98;100.00;97058.88;110028;1281;23217;-91
2023/08/20 06:35:29;;;;;;;13.40;12.20;;;;;;;21.02;100.00;97058.71;109990;1281;22235;-92
2023/08/20 06:37:55;;;;;;;13.10;11.80;;;;;;;21.04;100.00;97060.61;109916;1278;138560;-92
2023/08/20 06:40:22;;;;;;;13.90;12.80;;;;;;;21.07;100.00;97061.98;110075;1279;22672;-91
2023/08/20 06:42:48;;;;;;;12.90;11.80;;;;;;;21.10;100.00;97062.36;109849;1273;138761;-91
2023/08/20 06:45:14;;;;;;;13.70;12.50;;;;;;;21.12;100.00;97063.16;110085;1281;22220;-92
2023/08/20 06:47:41;;;;;;;12.70;11.50;;;;;;;21.15;100.00;97065.27;109999;1281;22496;-92
2023/08/20 06:50:09;;;;;;;12.70;11.60;;;;;;;21.18;100.00;97068.05;109975;1276;137575;-92
2023/08/20 06:52:35;;;;;;;12.90;11.70;;;;;;;21.21;100.00;97068.10;110088;1281;22380;-93
2023/08/20 06:55:21;;;;;;;13.00;11.80;;;;;;;21.24;100.00;97070.29;109874;1281;138659;-91
2023/08/20 06:57:50;;;;;;;12.70;11.50;;;;;;;21.27;100.00;97069.10;110027;1281;23106;-91
2023/08/20 07:00:19;;;;;;;13.50;12.40;;;;;;;21.30;100.00;97070.76;110022;1281;138791;-92
2023/08/20 07:02:45;;;;;;;13.20;11.80;;;;;;;21.33;100.00;97075.15;110005;1281;22238;-92
2023/08/20 07:05:13;;;;;;;13.90;12.60;;;;;;;21.36;100.00;97073.46;110007;1277;22177;-91
2023/08/20 07:07:40;;;;;;;13.00;11.90;;;;;;;21.38;100.00;97071.52;110028;1281;138887;-92
2023/08/20 07:10:08;;;;;;;13.20;12.10;;;;;;;21.42;100.00;97070.77;110038;1277;23225;-91
2023/08/20 07:12:35;;;;;;;13.30;12.00;;;;;;;21.44;100.00;97070.73;109905;1276;139248;-91
2023/08/20 07:15:03;;;;;;;12.30;11.30;;;;;;;21.47;100.00;97070.05;110108;1273;22252;-92
2023/08/20 07:17:30;;;;;;;13.40;12.20;;;;;;;21.50;100.00;97070.34;109992;1276;22183;-92
2023/08/20 07:19:56;;;;;;;12.50;11.40;;;;;;;21.53;100.00;97068.69;109927;1277;139117;-91
2023/08/20 07:22:27;;;;;;;13.20;12.00;;;;;;;21.55;100.00;97068.48;110111;1273;22188;-92
2023/08/20 07:24:54;;;;;;;12.90;11.80;;;;;;;21.59;100.00;97070.43;109897;1277;139292;-91
2023/08/20 07:27:21;;;;;;;13.10;12.00;;;;;;;21.62;100.00;97067.89;110022;1273;23399;-91
2023/08/20 07:29:48;;;;;;;12.80;11.80;;;;;;;21.65;100.00;97070.45;110068;1275;22405;-91
2023/08/20 07:32:15;;;;;;;13.50;12.20;;;;;;;21.67;100.00;97071.45;109847;1281;138224;-92
2023/08/20 07:34:42;;;;;;;13.30;12.10;;;;;;;21.70;100.00;97074.00;110051;1273;22357;-92
2023/08/20 07:37:09;;;;;;;13.00;11.90;;;;;;;21.74;100.00;97075.38;109978;1281;138667;-92
2023/08/20 07:39:38;;;;;;;13.40;12.20;;;;;;;21.77;100.00;97074.64;110141;1281;22210;-92
2023/08/20 07:42:04;;;;;;;12.60;11.60;;;;;;;21.81;100.00;97071.82;109969;1281;139047;-92
2023/08/20 07:44:31;;;;;;;12.30;11.30;;;;;;;21.84;100.00;97071.46;110020;1281;22994;-92
2023/08/20 07:46:57;;;;;;;13.20;12.00;;;;;;;21.87;100.00;97072.73;110045;1269;22205;-91
2023/08/20 07:49:23;;;;;;;12.70;11.60;;;;;;;21.90;100.00;97076.91;109890;1280;138917;-92
2023/08/20 07:51:52;;;;;;;13.90;12.70;;;;;;;21.93;100.00;97077.48;110034;1280;22448;-92
2023/08/20 07:54:19;;;;;;;12.80;11.70;;;;;;;21.95;100.00;97080.13;109921;1280;138801;-92
2023/08/20 07:56:46;;;;;;;13.40;12.00;;;;;;;22.00;100.00;97076.95;110002;1276;23126;-92
2023/08/20 07:59:12;;;;;;;13.00;11.80;;;;;;;22.01;100.00;97078.45;109987;1273;22373;-92
2023/08/20 08:01:39;;;;;;;13.30;12.10;;;;;;;22.05;100.00;97081.11;109902;1277;138685;-92
2023/08/20 08:04:06;;;;;;;13.50;12.10;;;;;;;22.11;100.00;97081.04;110012;1277;22437;-92
2023/08/20 08:06:32;;;;;;;13.40;12.20;;;;;;;22.17;100.00;97086.00;109824;1281;138861;-92
2023/08/20 08:09:19;;;;;;;13.70;12.50;;;;;;;22.19;100.00;97085.55;110021;1281;22198;-92
2023/08/20 08:11:48;;;;;;;12.60;11.60;;;;;;;22.22;100.00;97085.14;110110;1278;22623;-92
2023/08/20 08:14:14;;;;;;;13.20;12.00;;;;;;;22.24;100.00;97086.70;109835;1281;138490;-93
2023/08/20 08:16:40;;;;;;;13.90;12.40;;;;;;;22.27;100.00;97088.01;110149;1273;22189;-92
2023/08/20 08:19:07;;;;;;;13.50;12.40;;;;;;;22.30;100.00;97087.99;109905;1282;138677;-91
2023/08/20 08:21:34;;;;;;;12.60;11.50;;;;;;;22.34;100.00;97090.06;110022;1281;22210;-91
2023/08/20 08:24:05;;;;;;;12.50;11.40;;;;;;;22.39;100.00;97091.10;109920;1281;138548;-91
2023/08/20 08:26:33;;;;;;;13.90;12.60;;;;;;;22.48;100.00;97094.65;110056;1281;22342;-92
2023/08/20 08:29:00;;;;;;;13.30;12.20;;;;;;;22.55;100.00;97089.71;110017;1277;22097;-92
2023/08/20 08:31:26;;;;;;;13.20;11.70;;;;;;;22.62;100.00;97087.88;109925;1273;139162;-92
2023/08/20 08:33:54;;;;;;;12.90;11.80;;;;;;;22.65;100.00;97089.47;109998;1281;22231;-92
2023/08/20 08:36:21;;;;;;;13.50;12.30;;;;;;;22.69;100.00;97092.42;109961;1273;139312;-92
2023/08/20 08:38:48;;;;;;;13.10;12.00;;;;;;;22.73;100.00;97092.60;110100;1281;22603;-93
2023/08/20 08:41:14;;;;;;;12.20;11.10;;;;;;;22.78;100.00;97092.79;110018;1281;22423;-92
2023/08/20 08:43:41;;;;;;;12.60;11.60;;;;;;;22.81;100.00;97092.69;110032;1275;138820;-92
2023/08/20 08:46:08;;;;;;;13.90;12.60;;;;;;;22.87;100.00;97093.25;110103;1277;23035;-92
2023/08/20 08:48:37;;;;;;;14.40;13.10;;;;;;;22.94;100.00;97091.40;109857;1282;139063;-91
2023/08/20 08:51:04;;;;;;;12.60;11.50;;;;;;;23.04;100.00;97090.96;110007;1280;22212;-92
2023/08/20 08:53:30;;;;;;;14.20;12.90;;;;;;;23.13;100.00;97093.76;109999;1282;23078;-92
2023/08/20 08:55:57;;;;;;;12.90;11.80;;;;;;;23.19;100.00;97088.46;109868;1282;138701;-91
2023/08/20 08:58:23;;;;;;;13.40;12.20;;;;;;;23.24;100.00;97088.63;109959;1277;22195;-92
2023/08/20 09:00:49;;;;;;;13.50;12.40;;;;;;;23.28;100.00;97091.05;109863;1277;138927;-92
2023/08/20 09:03:16;;;;;;;13.60;12.20;;;;;;;23.34;100.00;97091.27;110057;1275;22263;-92
2023/08/20 09:05:50;;;;;;;13.50;12.30;;;;;;;23.43;100.00;97093.94;109960;1276;22493;-93
2023/08/20 09:08:28;;;;;;;14.80;13.50;;;;;;;23.51;100.00;97092.39;109888;1276;138306;-92
2023/08/20 09:10:56;;;;;;;13.00;12.00;;;;;;;23.56;100.00;97096.16;109942;1283;22954;-92
2023/08/20 09:13:26;;;;;;;14.10;12.90;;;;;;;23.61;100.00;97093.88;109802;1270;140126;-91
2023/08/20 09:15:53;;;;;;;13.10;11.90;;;;;;;23.67;100.00;97095.90;109905;1273;22206;-92
2023/08/20 09:18:19;;;;;;;12.30;11.20;;;;;;;23.77;100.00;97095.87;109769;1283;138512;-90
2023/08/20 09:20:47;;;;;;;13.20;12.00;;;;;;;23.81;100.00;97098.77;109958;1278;22221;-92
2023/08/20 09:23:13;;;;;;;13.80;12.50;;;;;;;23.84;100.00;97095.09;109971;1278;22256;-92
2023/08/20 09:25:39;;;;;;;13.20;12.10;;;;;;;23.85;100.00;97094.20;109849;1275;138738;-92
2023/08/20 09:28:06;;;;;;;13.30;12.20;;;;;;;23.89;100.00;97097.52;110014;1282;22232;-93
2023/08/20 09:30:32;;;;;;;12.80;11.70;;;;;;;23.91;100.00;97098.67;109872;1283;138879;-92
2023/08/20 09:33:03;;;;;;;13.70;12.20;;;;;;;23.94;100.00;97102.15;110042;1281;22286;-92
2023/08/20 09:35:31;;;;;;;13.80;12.60;;;;;;;24.04;100.00;97101.66;109949;1277;22896;-91
2023/08/20 09:38:01;;;;;;;13.40;12.20;;;;;;;24.12;100.00;97101.70;109885;1272;137800;-91
2023/08/20 09:40:27;;;;;;;13.10;11.90;;;;;;;24.15;100.00;97105.34;110000;1282;22218;-92
2023/08/20 09:42:53;;;;;;;13.90;12.80;;;;;;;24.15;100.00;97107.31;109883;1282;139409;-92
2023/08/20 09:45:27;;;;;;;14.30;13.00;;;;;;;24.16;100.00;97102.55;109930;1282;22211;-92
2023/08/20 09:47:55;;;;;;;14.80;13.40;;;;;;;24.18;100.00;97108.55;109949;1282;22315;-92
2023/08/20 09:50:23;;;;;;;14.00;12.70;;;;;;;24.20;100.00;97103.95;109896;1277;138698;-92
2023/08/20 09:52:55;;;;;;;14.10;13.00;;;;;;;24.27;100.00;97099.05;109969;1268;22222;-92
2023/08/20 09:55:24;;;;;;;13.60;12.50;;;;;;;24.34;100.00;97100.40;109867;1282;138823;-92
2023/08/20 09:57:50;;;;;;;13.30;12.10;;;;;;;24.38;100.00;97099.58;109935;1280;22265;-91
2023/08/20 10:00:17;;;;;;;13.80;12.40;;;;;;;24.40;100.00;97101.63;109840;1277;139015;-92
2023/08/20 10:02:43;;;;;;;13.60;12.50;;;;;;;24.43;100.00;97105.66;110006;1282;22313;-91
2023/08/20 10:05:11;;;;;;;13.90;12.80;;;;;;;24.45;100.00;97104.55;109971;1282;22241;-91
2023/08/20 10:07:38;;;;;;;14.50;13.30;;;;;;;24.47;100.00;97104.83;109838;1276;138554;-92
2023/08/20 10:10:08;;;;;;;13.90;12.80;;;;;;;24.44;100.00;97100.83;109956;1282;22193;-91
2023/08/20 10:12:39;;;;;;;13.60;12.50;;;;;;;24.44;100.00;97097.37;109857;1282;139021;-92
2023/08/20 10:15:19;;;;;;;14.10;13.00;;;;;;;24.44;100.00;97098.44;109970;1280;23101;-91
2023/08/20 10:17:49;;;;;;;15.30;14.00;;;;;;;24.44;100.00;97096.52;109970;1282;22558;-91
2023/08/20 10:20:16;;;;;;;15.40;14.20;;;;;;;24.48;100.00;97096.12;109882;1273;138320;-92
2023/08/20 10:22:45;;;;;;;15.60;14.40;;;;;;;24.54;100.00;97095.09;109951;1281;22226;-91
2023/08/20 10:25:21;;;;;;;15.20;13.90;;;;;;;24.62;100.00;97091.89;109972;1267;138547;-93
2023/08/20 10:27:47;;;;;;;13.60;12.40;;;;;;;24.68;100.00;97092.50;110063;1273;22435;-92
2023/08/20 10:30:17;;;;;;;14.50;13.40;;;;;;;24.70;100.00;97092.89;109876;1278;138594;-92
2023/08/20 10:32:47;;;;;;;14.60;13.40;;;;;;;24.68;100.00;97091.13;109991;1276;22253;-91
2023/08/20 10:35:15;;;;;;;;;;;;;;;24.71;100.00;97088.91;110041;1281;22432;-92
2023/08/20 10:38:02;;;;;;;12.40;11.30;;;;;;;24.74;100.00;97087.66;109988;1281;124477;-91
2023/08/20 10:40:56;;;;;;;14.30;12.80;;;;;;;24.70;100.00;97089.54;109996;1281;22247;-91
2023/08/20 10:43:25;;;;;;;12.70;11.70;;;;;;;24.65;100.00;97086.38;109941;1275;138663;-92
2023/08/20 10:46:10;;;;;;;11.60;10.50;;;;;;;24.62;100.00;97085.50;110105;1273;23117;-92
2023/08/20 10:48:38;;;;;;;12.20;11.20;;;;;;;24.63;100.00;97084.34;109969;1273;139239;-92
2023/08/20 10:51:17;;;;;;;12.70;11.50;;;;;;;24.70;100.00;97081.04;110069;1273;22172;-92
2023/08/20 10:53:50;;;;;;;14.50;11.90;;;;;;;24.80;100.00;97078.99;109973;1276;22450;-92
2023/08/20 10:56:17;;;;;;;13.00;11.90;;;;;;;24.87;100.00;97078.61;109888;1268;138448;-91
2023/08/20 10:58:46;;;;;;;11.30;10.30;;;;;;;24.91;100.00;97079.50;110012;1275;22309;-92
2023/08/20 11:01:22;;;;;;;11.80;10.80;;;;;;;24.98;99.25;97081.56;109860;1277;139012;-92
2023/08/20 11:03:51;;;;;;;11.80;10.70;;;;;;;25.12;100.00;97077.80;109998;1281;22433;-91